sensor_id;sensor_type;location;lat;lon;timestamp;P1;durP1;ratioP1;P2;durP2;ratioP2
23884;SDS011;12123;53.088;7.392;2022-09-02T00:01:32;3.85;;;1.60;;
23884;SDS011;12123;53.088;7.392;2022-09-02T00:04:01;2.15;;;1.08;;
23884;SDS011;12123;53.088;7.392;2022-09-02T00:06:31;3.15;;;1.42;;
23884;SDS011;12123;53.088;7.392;2022-09-02T00:08:58;3.05;;;1.23;;
23884;SDS011;12123;53.088;7.392;2022-09-02T00:11:27;1.73;;;1.10;;
23884;SDS011;12123;53.088;7.392;2022-09-02T00:13:55;6.00;;;1.60;;
23884;SDS011;12123;53.088;7.392;2022-09-02T00:16:23;5.90;;;1.27;;
23884;SDS011;12123;53.088;7.392;2022-09-02T00:18:50;1.40;;;1.05;;
23884;SDS011;12123;53.088;7.392;2022-09-02T00:21:19;1.60;;;1.05;;
23884;SDS011;12123;53.088;7.392;2022-09-02T00:23:47;1.92;;;1.20;;
23884;SDS011;12123;53.088;7.392;2022-09-02T00:26:14;5.82;;;1.80;;
23884;SDS011;12123;53.088;7.392;2022-09-02T00:28:41;3.63;;;1.48;;
23884;SDS011;12123;53.088;7.392;2022-09-02T00:31:14;3.92;;;1.35;;
23884;SDS011;12123;53.088;7.392;2022-09-02T00:33:42;1.92;;;1.02;;
23884;SDS011;12123;53.088;7.392;2022-09-02T00:36:09;3.97;;;1.35;;
23884;SDS011;12123;53.088;7.392;2022-09-02T00:38:37;2.85;;;1.45;;
23884;SDS011;12123;53.088;7.392;2022-09-02T00:41:05;3.25;;;1.10;;
23884;SDS011;12123;53.088;7.392;2022-09-02T00:43:41;2.50;;;1.10;;
23884;SDS011;12123;53.088;7.392;2022-09-02T00:48:36;4.72;;;1.60;;
23884;SDS011;12123;53.088;7.392;2022-09-02T00:51:07;2.92;;;1.30;;
23884;SDS011;12123;53.088;7.392;2022-09-02T00:53:34;3.50;;;1.27;;
23884;SDS011;12123;53.088;7.392;2022-09-02T00:56:05;4.32;;;1.52;;
23884;SDS011;12123;53.088;7.392;2022-09-02T00:58:34;3.50;;;1.40;;
23884;SDS011;12123;53.088;7.392;2022-09-02T01:01:03;2.53;;;1.40;;
23884;SDS011;12123;53.088;7.392;2022-09-02T01:03:30;3.85;;;1.40;;
23884;SDS011;12123;53.088;7.392;2022-09-02T01:05:58;1.73;;;1.23;;
23884;SDS011;12123;53.088;7.392;2022-09-02T01:08:29;3.85;;;1.60;;
23884;SDS011;12123;53.088;7.392;2022-09-02T01:10:59;1.90;;;1.40;;
23884;SDS011;12123;53.088;7.392;2022-09-02T01:13:35;2.35;;;1.30;;
23884;SDS011;12123;53.088;7.392;2022-09-02T01:18:34;4.00;;;1.10;;
23884;SDS011;12123;53.088;7.392;2022-09-02T01:21:01;2.15;;;1.23;;
23884;SDS011;12123;53.088;7.392;2022-09-02T01:23:29;2.00;;;1.20;;
23884;SDS011;12123;53.088;7.392;2022-09-02T01:26:00;7.78;;;1.73;;
23884;SDS011;12123;53.088;7.392;2022-09-02T01:28:27;2.75;;;1.00;;
23884;SDS011;12123;53.088;7.392;2022-09-02T01:30:54;3.05;;;1.52;;
23884;SDS011;12123;53.088;7.392;2022-09-02T01:33:22;3.95;;;1.38;;
23884;SDS011;12123;53.088;7.392;2022-09-02T01:35:51;4.70;;;1.50;;
23884;SDS011;12123;53.088;7.392;2022-09-02T01:38:19;2.42;;;1.20;;
23884;SDS011;12123;53.088;7.392;2022-09-02T01:40:47;5.57;;;1.85;;
23884;SDS011;12123;53.088;7.392;2022-09-02T01:43:15;3.42;;;1.30;;
23884;SDS011;12123;53.088;7.392;2022-09-02T01:45:43;1.95;;;1.30;;
23884;SDS011;12123;53.088;7.392;2022-09-02T01:48:12;2.85;;;1.50;;
23884;SDS011;12123;53.088;7.392;2022-09-02T01:50:51;8.30;;;1.67;;
23884;SDS011;12123;53.088;7.392;2022-09-02T01:53:19;2.38;;;1.40;;
23884;SDS011;12123;53.088;7.392;2022-09-02T01:55:46;1.83;;;1.45;;
23884;SDS011;12123;53.088;7.392;2022-09-02T01:58:14;4.68;;;1.63;;
23884;SDS011;12123;53.088;7.392;2022-09-02T02:00:41;4.38;;;1.38;;
23884;SDS011;12123;53.088;7.392;2022-09-02T02:03:08;2.60;;;1.50;;
23884;SDS011;12123;53.088;7.392;2022-09-02T02:05:36;2.60;;;1.38;;
23884;SDS011;12123;53.088;7.392;2022-09-02T02:08:03;2.63;;;1.40;;
23884;SDS011;12123;53.088;7.392;2022-09-02T02:10:31;1.98;;;1.70;;
23884;SDS011;12123;53.088;7.392;2022-09-02T02:12:59;1.40;;;1.30;;
23884;SDS011;12123;53.088;7.392;2022-09-02T02:15:27;3.67;;;1.50;;
23884;SDS011;12123;53.088;7.392;2022-09-02T02:17:53;3.53;;;1.42;;
23884;SDS011;12123;53.088;7.392;2022-09-02T02:20:20;3.50;;;1.60;;
23884;SDS011;12123;53.088;7.392;2022-09-02T02:22:48;4.05;;;1.40;;
23884;SDS011;12123;53.088;7.392;2022-09-02T02:25:15;1.48;;;1.30;;
23884;SDS011;12123;53.088;7.392;2022-09-02T02:27:43;3.75;;;1.63;;
23884;SDS011;12123;53.088;7.392;2022-09-02T02:30:11;2.35;;;1.88;;
23884;SDS011;12123;53.088;7.392;2022-09-02T02:32:39;2.95;;;1.35;;
23884;SDS011;12123;53.088;7.392;2022-09-02T02:35:07;3.40;;;1.83;;
23884;SDS011;12123;53.088;7.392;2022-09-02T02:37:34;2.95;;;1.85;;
23884;SDS011;12123;53.088;7.392;2022-09-02T02:40:03;2.05;;;1.80;;
23884;SDS011;12123;53.088;7.392;2022-09-02T02:42:30;3.15;;;1.70;;
23884;SDS011;12123;53.088;7.392;2022-09-02T02:44:57;1.75;;;1.63;;
23884;SDS011;12123;53.088;7.392;2022-09-02T02:47:25;4.70;;;1.70;;
23884;SDS011;12123;53.088;7.392;2022-09-02T02:49:52;2.40;;;1.67;;
23884;SDS011;12123;53.088;7.392;2022-09-02T02:52:20;2.20;;;2.00;;
23884;SDS011;12123;53.088;7.392;2022-09-02T02:54:47;2.95;;;1.85;;
23884;SDS011;12123;53.088;7.392;2022-09-02T02:57:14;4.20;;;1.58;;
23884;SDS011;12123;53.088;7.392;2022-09-02T02:59:41;1.88;;;1.58;;
23884;SDS011;12123;53.088;7.392;2022-09-02T03:02:09;2.53;;;1.50;;
23884;SDS011;12123;53.088;7.392;2022-09-02T03:04:36;7.50;;;1.52;;
23884;SDS011;12123;53.088;7.392;2022-09-02T03:07:04;4.00;;;1.80;;
23884;SDS011;12123;53.088;7.392;2022-09-02T03:09:32;2.90;;;1.63;;
23884;SDS011;12123;53.088;7.392;2022-09-02T03:11:59;3.75;;;1.63;;
23884;SDS011;12123;53.088;7.392;2022-09-02T03:14:26;4.22;;;1.52;;
23884;SDS011;12123;53.088;7.392;2022-09-02T03:16:54;4.60;;;1.88;;
23884;SDS011;12123;53.088;7.392;2022-09-02T03:19:21;3.45;;;1.98;;
23884;SDS011;12123;53.088;7.392;2022-09-02T03:21:48;3.60;;;1.63;;
23884;SDS011;12123;53.088;7.392;2022-09-02T03:24:15;3.47;;;1.80;;
23884;SDS011;12123;53.088;7.392;2022-09-02T03:26:43;4.55;;;2.13;;
23884;SDS011;12123;53.088;7.392;2022-09-02T03:29:10;3.53;;;1.70;;
23884;SDS011;12123;53.088;7.392;2022-09-02T03:31:37;4.22;;;1.90;;
23884;SDS011;12123;53.088;7.392;2022-09-02T03:34:04;3.75;;;1.70;;
23884;SDS011;12123;53.088;7.392;2022-09-02T03:36:34;3.65;;;1.73;;
23884;SDS011;12123;53.088;7.392;2022-09-02T03:39:04;3.08;;;1.50;;
23884;SDS011;12123;53.088;7.392;2022-09-02T03:41:35;2.42;;;1.90;;
23884;SDS011;12123;53.088;7.392;2022-09-02T03:44:03;3.72;;;1.90;;
23884;SDS011;12123;53.088;7.392;2022-09-02T03:46:30;2.47;;;1.73;;
23884;SDS011;12123;53.088;7.392;2022-09-02T03:48:57;5.55;;;2.28;;
23884;SDS011;12123;53.088;7.392;2022-09-02T03:51:25;3.35;;;1.95;;
23884;SDS011;12123;53.088;7.392;2022-09-02T03:53:52;3.50;;;1.73;;
23884;SDS011;12123;53.088;7.392;2022-09-02T03:56:20;5.20;;;1.80;;
23884;SDS011;12123;53.088;7.392;2022-09-02T03:58:48;3.20;;;1.80;;
23884;SDS011;12123;53.088;7.392;2022-09-02T04:01:21;3.53;;;1.75;;
23884;SDS011;12123;53.088;7.392;2022-09-02T04:03:49;5.50;;;1.90;;
23884;SDS011;12123;53.088;7.392;2022-09-02T04:06:17;5.28;;;1.90;;
23884;SDS011;12123;53.088;7.392;2022-09-02T04:08:45;5.15;;;2.00;;
23884;SDS011;12123;53.088;7.392;2022-09-02T04:11:14;4.43;;;2.05;;
23884;SDS011;12123;53.088;7.392;2022-09-02T04:13:43;3.80;;;2.10;;
23884;SDS011;12123;53.088;7.392;2022-09-02T04:16:12;2.15;;;1.80;;
23884;SDS011;12123;53.088;7.392;2022-09-02T04:18:39;2.58;;;1.67;;
23884;SDS011;12123;53.088;7.392;2022-09-02T04:21:06;4.95;;;2.03;;
23884;SDS011;12123;53.088;7.392;2022-09-02T04:23:34;5.15;;;1.90;;
23884;SDS011;12123;53.088;7.392;2022-09-02T04:26:02;2.63;;;2.05;;
23884;SDS011;12123;53.088;7.392;2022-09-02T04:28:30;3.03;;;2.30;;
23884;SDS011;12123;53.088;7.392;2022-09-02T04:30:57;4.05;;;1.85;;
23884;SDS011;12123;53.088;7.392;2022-09-02T04:33:25;2.38;;;2.17;;
23884;SDS011;12123;53.088;7.392;2022-09-02T04:35:52;3.65;;;2.03;;
23884;SDS011;12123;53.088;7.392;2022-09-02T04:38:20;5.40;;;2.28;;
23884;SDS011;12123;53.088;7.392;2022-09-02T04:40:48;3.90;;;2.15;;
23884;SDS011;12123;53.088;7.392;2022-09-02T04:43:15;5.45;;;2.50;;
23884;SDS011;12123;53.088;7.392;2022-09-02T04:45:44;4.22;;;2.60;;
23884;SDS011;12123;53.088;7.392;2022-09-02T04:48:11;2.88;;;2.35;;
23884;SDS011;12123;53.088;7.392;2022-09-02T04:50:39;4.25;;;2.30;;
23884;SDS011;12123;53.088;7.392;2022-09-02T04:53:07;3.88;;;2.42;;
23884;SDS011;12123;53.088;7.392;2022-09-02T04:55:36;4.43;;;2.88;;
23884;SDS011;12123;53.088;7.392;2022-09-02T04:58:04;4.22;;;2.60;;
23884;SDS011;12123;53.088;7.392;2022-09-02T05:00:31;5.80;;;2.50;;
23884;SDS011;12123;53.088;7.392;2022-09-02T05:02:58;5.40;;;2.50;;
23884;SDS011;12123;53.088;7.392;2022-09-02T05:05:26;3.95;;;2.58;;
23884;SDS011;12123;53.088;7.392;2022-09-02T05:07:53;5.05;;;2.60;;
23884;SDS011;12123;53.088;7.392;2022-09-02T05:10:21;5.20;;;2.20;;
23884;SDS011;12123;53.088;7.392;2022-09-02T05:12:49;7.38;;;2.47;;
23884;SDS011;12123;53.088;7.392;2022-09-02T05:15:17;3.85;;;2.63;;
23884;SDS011;12123;53.088;7.392;2022-09-02T05:17:44;6.90;;;2.42;;
23884;SDS011;12123;53.088;7.392;2022-09-02T05:20:11;4.25;;;2.13;;
23884;SDS011;12123;53.088;7.392;2022-09-02T05:22:39;3.55;;;2.30;;
23884;SDS011;12123;53.088;7.392;2022-09-02T05:25:06;3.15;;;2.35;;
23884;SDS011;12123;53.088;7.392;2022-09-02T05:27:34;4.85;;;2.22;;
23884;SDS011;12123;53.088;7.392;2022-09-02T05:30:02;4.15;;;2.33;;
23884;SDS011;12123;53.088;7.392;2022-09-02T05:32:30;5.20;;;2.38;;
23884;SDS011;12123;53.088;7.392;2022-09-02T05:35:03;8.65;;;2.25;;
23884;SDS011;12123;53.088;7.392;2022-09-02T05:37:30;5.35;;;2.17;;
23884;SDS011;12123;53.088;7.392;2022-09-02T05:39:57;3.10;;;2.20;;
23884;SDS011;12123;53.088;7.392;2022-09-02T05:42:26;3.88;;;2.22;;
23884;SDS011;12123;53.088;7.392;2022-09-02T05:44:54;5.30;;;2.67;;
23884;SDS011;12123;53.088;7.392;2022-09-02T05:47:22;2.63;;;2.30;;
23884;SDS011;12123;53.088;7.392;2022-09-02T05:49:50;7.53;;;2.33;;
23884;SDS011;12123;53.088;7.392;2022-09-02T05:52:18;2.47;;;2.28;;
23884;SDS011;12123;53.088;7.392;2022-09-02T05:54:46;3.08;;;2.13;;
23884;SDS011;12123;53.088;7.392;2022-09-02T05:57:15;2.80;;;2.25;;
23884;SDS011;12123;53.088;7.392;2022-09-02T05:59:43;3.42;;;1.95;;
23884;SDS011;12123;53.088;7.392;2022-09-02T06:02:11;4.82;;;2.38;;
23884;SDS011;12123;53.088;7.392;2022-09-02T06:04:40;3.38;;;2.10;;
23884;SDS011;12123;53.088;7.392;2022-09-02T06:07:08;3.80;;;1.90;;
23884;SDS011;12123;53.088;7.392;2022-09-02T06:09:39;3.35;;;2.08;;
23884;SDS011;12123;53.088;7.392;2022-09-02T06:12:06;6.88;;;2.20;;
23884;SDS011;12123;53.088;7.392;2022-09-02T06:14:34;6.55;;;2.22;;
23884;SDS011;12123;53.088;7.392;2022-09-02T06:17:03;6.82;;;2.35;;
23884;SDS011;12123;53.088;7.392;2022-09-02T06:19:31;4.32;;;1.77;;
23884;SDS011;12123;53.088;7.392;2022-09-02T06:21:59;5.40;;;1.73;;
23884;SDS011;12123;53.088;7.392;2022-09-02T06:24:27;8.52;;;1.85;;
23884;SDS011;12123;53.088;7.392;2022-09-02T06:26:55;3.75;;;2.00;;
23884;SDS011;12123;53.088;7.392;2022-09-02T06:29:23;3.47;;;1.75;;
23884;SDS011;12123;53.088;7.392;2022-09-02T06:31:51;3.83;;;2.20;;
23884;SDS011;12123;53.088;7.392;2022-09-02T06:34:19;3.08;;;1.80;;
23884;SDS011;12123;53.088;7.392;2022-09-02T06:36:47;2.67;;;1.80;;
23884;SDS011;12123;53.088;7.392;2022-09-02T06:39:17;5.15;;;2.00;;
23884;SDS011;12123;53.088;7.392;2022-09-02T06:41:44;1.83;;;1.50;;
23884;SDS011;12123;53.088;7.392;2022-09-02T06:44:13;3.00;;;1.83;;
23884;SDS011;12123;53.088;7.392;2022-09-02T06:46:42;3.50;;;1.70;;
23884;SDS011;12123;53.088;7.392;2022-09-02T06:49:10;3.55;;;1.83;;
23884;SDS011;12123;53.088;7.392;2022-09-02T06:51:39;2.67;;;1.60;;
23884;SDS011;12123;53.088;7.392;2022-09-02T06:54:07;4.47;;;1.63;;
23884;SDS011;12123;53.088;7.392;2022-09-02T06:56:34;2.78;;;1.77;;
23884;SDS011;12123;53.088;7.392;2022-09-02T06:59:02;4.90;;;1.42;;
23884;SDS011;12123;53.088;7.392;2022-09-02T07:01:31;2.28;;;1.67;;
23884;SDS011;12123;53.088;7.392;2022-09-02T07:03:58;5.45;;;1.88;;
23884;SDS011;12123;53.088;7.392;2022-09-02T07:06:46;3.72;;;1.58;;
23884;SDS011;12123;53.088;7.392;2022-09-02T07:09:15;4.13;;;1.67;;
23884;SDS011;12123;53.088;7.392;2022-09-02T07:11:42;4.57;;;1.58;;
23884;SDS011;12123;53.088;7.392;2022-09-02T07:14:13;3.95;;;1.60;;
23884;SDS011;12123;53.088;7.392;2022-09-02T07:16:42;2.35;;;1.30;;
23884;SDS011;12123;53.088;7.392;2022-09-02T07:19:10;2.03;;;1.50;;
23884;SDS011;12123;53.088;7.392;2022-09-02T07:21:43;2.35;;;1.55;;
23884;SDS011;12123;53.088;7.392;2022-09-02T07:24:11;2.20;;;1.50;;
23884;SDS011;12123;53.088;7.392;2022-09-02T07:26:39;4.07;;;2.10;;
23884;SDS011;12123;53.088;7.392;2022-09-02T07:29:07;3.45;;;1.35;;
23884;SDS011;12123;53.088;7.392;2022-09-02T07:31:36;6.10;;;1.42;;
23884;SDS011;12123;53.088;7.392;2022-09-02T07:34:03;3.22;;;1.48;;
23884;SDS011;12123;53.088;7.392;2022-09-02T07:36:32;4.70;;;1.40;;
23884;SDS011;12123;53.088;7.392;2022-09-02T07:39:00;3.25;;;1.65;;
23884;SDS011;12123;53.088;7.392;2022-09-02T07:41:27;3.17;;;1.20;;
23884;SDS011;12123;53.088;7.392;2022-09-02T07:43:55;2.00;;;1.20;;
23884;SDS011;12123;53.088;7.392;2022-09-02T07:46:25;3.63;;;2.08;;
23884;SDS011;12123;53.088;7.392;2022-09-02T07:48:54;4.18;;;1.35;;
23884;SDS011;12123;53.088;7.392;2022-09-02T07:51:22;7.38;;;1.95;;
23884;SDS011;12123;53.088;7.392;2022-09-02T07:53:55;7.18;;;1.45;;
23884;SDS011;12123;53.088;7.392;2022-09-02T07:56:23;7.47;;;2.25;;
23884;SDS011;12123;53.088;7.392;2022-09-02T07:58:50;4.80;;;1.60;;
23884;SDS011;12123;53.088;7.392;2022-09-02T08:01:17;2.42;;;1.70;;
23884;SDS011;12123;53.088;7.392;2022-09-02T08:03:49;5.07;;;1.65;;
23884;SDS011;12123;53.088;7.392;2022-09-02T08:06:16;3.50;;;1.40;;
23884;SDS011;12123;53.088;7.392;2022-09-02T08:08:59;5.97;;;1.80;;
23884;SDS011;12123;53.088;7.392;2022-09-02T08:11:27;3.47;;;1.48;;
23884;SDS011;12123;53.088;7.392;2022-09-02T08:13:54;6.57;;;1.60;;
23884;SDS011;12123;53.088;7.392;2022-09-02T08:16:21;3.72;;;1.40;;
23884;SDS011;12123;53.088;7.392;2022-09-02T08:18:49;3.72;;;1.35;;
23884;SDS011;12123;53.088;7.392;2022-09-02T08:21:16;3.85;;;1.33;;
23884;SDS011;12123;53.088;7.392;2022-09-02T08:23:44;4.50;;;1.48;;
23884;SDS011;12123;53.088;7.392;2022-09-02T08:26:15;3.65;;;1.67;;
23884;SDS011;12123;53.088;7.392;2022-09-02T08:28:43;4.65;;;1.85;;
23884;SDS011;12123;53.088;7.392;2022-09-02T08:31:10;6.55;;;1.40;;
23884;SDS011;12123;53.088;7.392;2022-09-02T08:33:38;5.30;;;1.42;;
23884;SDS011;12123;53.088;7.392;2022-09-02T08:36:06;2.55;;;1.35;;
23884;SDS011;12123;53.088;7.392;2022-09-02T08:38:34;3.83;;;1.40;;
23884;SDS011;12123;53.088;7.392;2022-09-02T08:41:09;4.97;;;1.50;;
23884;SDS011;12123;53.088;7.392;2022-09-02T08:43:38;6.38;;;1.50;;
23884;SDS011;12123;53.088;7.392;2022-09-02T08:46:09;2.15;;;1.45;;
23884;SDS011;12123;53.088;7.392;2022-09-02T08:48:39;2.60;;;1.63;;
23884;SDS011;12123;53.088;7.392;2022-09-02T08:51:09;4.05;;;1.58;;
23884;SDS011;12123;53.088;7.392;2022-09-02T08:56:27;3.80;;;1.30;;
23884;SDS011;12123;53.088;7.392;2022-09-02T08:58:54;3.33;;;1.40;;
23884;SDS011;12123;53.088;7.392;2022-09-02T09:01:31;5.00;;;1.80;;
23884;SDS011;12123;53.088;7.392;2022-09-02T09:09:12;4.13;;;1.30;;
23884;SDS011;12123;53.088;7.392;2022-09-02T09:14:16;4.00;;;1.98;;
23884;SDS011;12123;53.088;7.392;2022-09-02T09:16:47;4.07;;;1.65;;
23884;SDS011;12123;53.088;7.392;2022-09-02T09:21:52;8.35;;;1.45;;
23884;SDS011;12123;53.088;7.392;2022-09-02T09:24:24;5.13;;;1.58;;
23884;SDS011;12123;53.088;7.392;2022-09-02T09:26:52;5.03;;;1.67;;
23884;SDS011;12123;53.088;7.392;2022-09-02T09:29:20;2.95;;;1.38;;
23884;SDS011;12123;53.088;7.392;2022-09-02T09:31:49;6.57;;;1.60;;
23884;SDS011;12123;53.088;7.392;2022-09-02T09:34:19;4.28;;;1.20;;
23884;SDS011;12123;53.088;7.392;2022-09-02T09:36:48;8.95;;;1.38;;
23884;SDS011;12123;53.088;7.392;2022-09-02T09:41:44;2.13;;;1.38;;
23884;SDS011;12123;53.088;7.392;2022-09-02T09:47:01;4.78;;;1.23;;
23884;SDS011;12123;53.088;7.392;2022-09-02T09:49:29;5.53;;;1.55;;
23884;SDS011;12123;53.088;7.392;2022-09-02T09:51:58;3.05;;;1.35;;
23884;SDS011;12123;53.088;7.392;2022-09-02T09:54:26;8.88;;;1.60;;
23884;SDS011;12123;53.088;7.392;2022-09-02T09:56:54;1.45;;;1.10;;
23884;SDS011;12123;53.088;7.392;2022-09-02T09:59:55;6.30;;;1.70;;
23884;SDS011;12123;53.088;7.392;2022-09-02T10:02:19;5.65;;;1.38;;
23884;SDS011;12123;53.088;7.392;2022-09-02T10:04:47;1.58;;;0.93;;
23884;SDS011;12123;53.088;7.392;2022-09-02T10:07:26;3.78;;;1.15;;
23884;SDS011;12123;53.088;7.392;2022-09-02T10:12:31;5.25;;;1.58;;
23884;SDS011;12123;53.088;7.392;2022-09-02T10:14:58;3.53;;;1.40;;
23884;SDS011;12123;53.088;7.392;2022-09-02T10:17:30;3.10;;;1.27;;
23884;SDS011;12123;53.088;7.392;2022-09-02T10:28:14;4.13;;;1.30;;
23884;SDS011;12123;53.088;7.392;2022-09-02T10:36:04;4.43;;;1.23;;
23884;SDS011;12123;53.088;7.392;2022-09-02T10:38:44;3.40;;;1.25;;
23884;SDS011;12123;53.088;7.392;2022-09-02T10:46:26;2.70;;;1.08;;
23884;SDS011;12123;53.088;7.392;2022-09-02T10:49:12;2.83;;;1.08;;
23884;SDS011;12123;53.088;7.392;2022-09-02T10:51:49;2.83;;;1.00;;
23884;SDS011;12123;53.088;7.392;2022-09-02T10:56:51;1.75;;;1.00;;
23884;SDS011;12123;53.088;7.392;2022-09-02T10:59:22;3.97;;;1.33;;
23884;SDS011;12123;53.088;7.392;2022-09-02T11:01:53;2.35;;;1.10;;
23884;SDS011;12123;53.088;7.392;2022-09-02T11:07:08;2.83;;;1.17;;
23884;SDS011;12123;53.088;7.392;2022-09-02T11:09:41;1.20;;;1.02;;
23884;SDS011;12123;53.088;7.392;2022-09-02T11:12:13;4.70;;;1.00;;
23884;SDS011;12123;53.088;7.392;2022-09-02T11:15:00;1.23;;;0.70;;
23884;SDS011;12123;53.088;7.392;2022-09-02T11:17:31;1.52;;;0.82;;
23884;SDS011;12123;53.088;7.392;2022-09-02T11:20:07;1.45;;;0.80;;
23884;SDS011;12123;53.088;7.392;2022-09-02T11:22:49;3.27;;;1.13;;
23884;SDS011;12123;53.088;7.392;2022-09-02T11:25:38;1.02;;;0.77;;
23884;SDS011;12123;53.088;7.392;2022-09-02T11:28:22;2.67;;;0.88;;
23884;SDS011;12123;53.088;7.392;2022-09-02T11:33:30;2.55;;;0.82;;
23884;SDS011;12123;53.088;7.392;2022-09-02T11:36:02;1.40;;;0.80;;
23884;SDS011;12123;53.088;7.392;2022-09-02T11:38:38;1.27;;;0.80;;
23884;SDS011;12123;53.088;7.392;2022-09-02T11:44:14;3.17;;;0.80;;
23884;SDS011;12123;53.088;7.392;2022-09-02T11:46:48;3.53;;;1.00;;
23884;SDS011;12123;53.088;7.392;2022-09-02T11:52:03;0.95;;;0.73;;
23884;SDS011;12123;53.088;7.392;2022-09-02T11:54:40;3.70;;;0.80;;
23884;SDS011;12123;53.088;7.392;2022-09-02T11:57:12;1.45;;;1.02;;
23884;SDS011;12123;53.088;7.392;2022-09-02T12:07:51;2.05;;;0.90;;
23884;SDS011;12123;53.088;7.392;2022-09-02T12:10:55;3.20;;;1.20;;
23884;SDS011;12123;53.088;7.392;2022-09-02T12:18:44;2.53;;;0.80;;
23884;SDS011;12123;53.088;7.392;2022-09-02T12:26:19;3.70;;;1.05;;
23884;SDS011;12123;53.088;7.392;2022-09-02T12:28:47;3.08;;;0.88;;
23884;SDS011;12123;53.088;7.392;2022-09-02T12:33:48;5.95;;;1.17;;
23884;SDS011;12123;53.088;7.392;2022-09-02T12:42:00;4.35;;;0.93;;
23884;SDS011;12123;53.088;7.392;2022-09-02T12:44:31;2.83;;;1.10;;
23884;SDS011;12123;53.088;7.392;2022-09-02T12:49:34;1.95;;;0.70;;
23884;SDS011;12123;53.088;7.392;2022-09-02T12:52:03;3.45;;;1.30;;
23884;SDS011;12123;53.088;7.392;2022-09-02T12:57:05;5.47;;;1.10;;
23884;SDS011;12123;53.088;7.392;2022-09-02T12:59:37;3.40;;;1.40;;
23884;SDS011;12123;53.088;7.392;2022-09-02T13:02:09;2.75;;;1.00;;
23884;SDS011;12123;53.088;7.392;2022-09-02T13:26:00;1.92;;;0.90;;
23884;SDS011;12123;53.088;7.392;2022-09-02T13:31:05;2.60;;;1.00;;
23884;SDS011;12123;53.088;7.392;2022-09-02T13:33:34;2.83;;;0.98;;
23884;SDS011;12123;53.088;7.392;2022-09-02T13:36:07;5.43;;;1.02;;
23884;SDS011;12123;53.088;7.392;2022-09-02T13:38:34;2.70;;;0.90;;
23884;SDS011;12123;53.088;7.392;2022-09-02T13:41:04;1.60;;;0.90;;
23884;SDS011;12123;53.088;7.392;2022-09-02T13:43:31;7.13;;;1.08;;
23884;SDS011;12123;53.088;7.392;2022-09-02T13:45:59;5.20;;;1.48;;
23884;SDS011;12123;53.088;7.392;2022-09-02T13:48:29;1.08;;;0.80;;
23884;SDS011;12123;53.088;7.392;2022-09-02T13:51:15;4.05;;;0.93;;
23884;SDS011;12123;53.088;7.392;2022-09-02T13:56:24;3.08;;;1.00;;
23884;SDS011;12123;53.088;7.392;2022-09-02T13:58:55;2.22;;;0.73;;
23884;SDS011;12123;53.088;7.392;2022-09-02T14:01:26;3.80;;;1.00;;
23884;SDS011;12123;53.088;7.392;2022-09-02T14:03:55;3.25;;;1.13;;
23884;SDS011;12123;53.088;7.392;2022-09-02T14:06:26;2.45;;;1.10;;
23884;SDS011;12123;53.088;7.392;2022-09-02T14:08:55;1.95;;;0.70;;
23884;SDS011;12123;53.088;7.392;2022-09-02T14:11:24;2.83;;;1.20;;
23884;SDS011;12123;53.088;7.392;2022-09-02T14:13:51;5.38;;;1.20;;
23884;SDS011;12123;53.088;7.392;2022-09-02T14:16:23;3.83;;;0.90;;
23884;SDS011;12123;53.088;7.392;2022-09-02T14:19:10;3.35;;;1.23;;
23884;SDS011;12123;53.088;7.392;2022-09-02T14:21:43;1.55;;;0.98;;
23884;SDS011;12123;53.088;7.392;2022-09-02T14:24:12;4.18;;;0.93;;
23884;SDS011;12123;53.088;7.392;2022-09-02T14:26:43;3.53;;;1.13;;
23884;SDS011;12123;53.088;7.392;2022-09-02T14:29:12;1.17;;;0.73;;
23884;SDS011;12123;53.088;7.392;2022-09-02T14:31:40;1.98;;;1.00;;
23884;SDS011;12123;53.088;7.392;2022-09-02T14:36:53;3.85;;;1.20;;
23884;SDS011;12123;53.088;7.392;2022-09-02T14:39:21;4.25;;;1.05;;
23884;SDS011;12123;53.088;7.392;2022-09-02T14:41:51;1.63;;;0.90;;
23884;SDS011;12123;53.088;7.392;2022-09-02T14:44:32;1.35;;;0.80;;
23884;SDS011;12123;53.088;7.392;2022-09-02T14:47:04;5.22;;;1.13;;
23884;SDS011;12123;53.088;7.392;2022-09-02T14:49:34;3.75;;;1.52;;
23884;SDS011;12123;53.088;7.392;2022-09-02T14:52:09;2.63;;;1.17;;
23884;SDS011;12123;53.088;7.392;2022-09-02T14:54:45;4.35;;;1.23;;
23884;SDS011;12123;53.088;7.392;2022-09-02T14:57:27;6.65;;;1.17;;
23884;SDS011;12123;53.088;7.392;2022-09-02T14:59:59;1.77;;;0.95;;
23884;SDS011;12123;53.088;7.392;2022-09-02T15:04:54;4.82;;;1.30;;
23884;SDS011;12123;53.088;7.392;2022-09-02T15:07:22;1.88;;;1.10;;
23884;SDS011;12123;53.088;7.392;2022-09-02T15:09:49;4.95;;;1.30;;
23884;SDS011;12123;53.088;7.392;2022-09-02T15:12:18;2.75;;;1.20;;
23884;SDS011;12123;53.088;7.392;2022-09-02T15:14:47;3.72;;;1.05;;
23884;SDS011;12123;53.088;7.392;2022-09-02T15:17:15;2.03;;;1.38;;
23884;SDS011;12123;53.088;7.392;2022-09-02T15:19:42;5.25;;;1.27;;
23884;SDS011;12123;53.088;7.392;2022-09-02T15:22:09;5.65;;;1.40;;
23884;SDS011;12123;53.088;7.392;2022-09-02T15:24:37;3.13;;;0.93;;
23884;SDS011;12123;53.088;7.392;2022-09-02T15:27:04;7.85;;;1.35;;
23884;SDS011;12123;53.088;7.392;2022-09-02T15:29:31;3.90;;;1.27;;
23884;SDS011;12123;53.088;7.392;2022-09-02T15:31:58;4.70;;;1.60;;
23884;SDS011;12123;53.088;7.392;2022-09-02T15:34:28;3.30;;;2.38;;
23884;SDS011;12123;53.088;7.392;2022-09-02T15:36:55;7.30;;;3.60;;
23884;SDS011;12123;53.088;7.392;2022-09-02T15:39:23;3.05;;;1.90;;
23884;SDS011;12123;53.088;7.392;2022-09-02T15:41:54;3.67;;;1.63;;
23884;SDS011;12123;53.088;7.392;2022-09-02T15:44:22;3.03;;;1.30;;
23884;SDS011;12123;53.088;7.392;2022-09-02T15:46:53;4.60;;;1.52;;
23884;SDS011;12123;53.088;7.392;2022-09-02T15:49:21;3.22;;;1.20;;
23884;SDS011;12123;53.088;7.392;2022-09-02T15:51:49;3.83;;;1.30;;
23884;SDS011;12123;53.088;7.392;2022-09-02T15:54:21;5.68;;;1.50;;
23884;SDS011;12123;53.088;7.392;2022-09-02T15:56:48;5.80;;;1.35;;
23884;SDS011;12123;53.088;7.392;2022-09-02T15:59:19;2.90;;;1.30;;
23884;SDS011;12123;53.088;7.392;2022-09-02T16:01:48;4.55;;;1.15;;
23884;SDS011;12123;53.088;7.392;2022-09-02T16:04:15;4.72;;;1.83;;
23884;SDS011;12123;53.088;7.392;2022-09-02T16:06:44;6.60;;;1.60;;
23884;SDS011;12123;53.088;7.392;2022-09-02T16:09:14;3.67;;;1.13;;
23884;SDS011;12123;53.088;7.392;2022-09-02T16:11:48;4.15;;;1.13;;
23884;SDS011;12123;53.088;7.392;2022-09-02T16:14:16;5.38;;;1.23;;
23884;SDS011;12123;53.088;7.392;2022-09-02T16:16:46;4.57;;;1.15;;
23884;SDS011;12123;53.088;7.392;2022-09-02T16:19:14;3.75;;;1.10;;
23884;SDS011;12123;53.088;7.392;2022-09-02T16:21:41;5.07;;;1.65;;
23884;SDS011;12123;53.088;7.392;2022-09-02T16:24:09;3.15;;;1.10;;
23884;SDS011;12123;53.088;7.392;2022-09-02T16:26:36;4.25;;;1.45;;
23884;SDS011;12123;53.088;7.392;2022-09-02T16:29:05;6.72;;;1.13;;
23884;SDS011;12123;53.088;7.392;2022-09-02T16:31:33;3.92;;;1.23;;
23884;SDS011;12123;53.088;7.392;2022-09-02T16:36:32;3.58;;;1.40;;
23884;SDS011;12123;53.088;7.392;2022-09-02T16:39:00;7.05;;;1.58;;
23884;SDS011;12123;53.088;7.392;2022-09-02T16:41:35;3.97;;;1.30;;
23884;SDS011;12123;53.088;7.392;2022-09-02T16:44:03;4.50;;;1.20;;
23884;SDS011;12123;53.088;7.392;2022-09-02T16:46:31;3.58;;;1.20;;
23884;SDS011;12123;53.088;7.392;2022-09-02T16:48:59;4.10;;;1.35;;
23884;SDS011;12123;53.088;7.392;2022-09-02T16:51:26;5.40;;;1.40;;
23884;SDS011;12123;53.088;7.392;2022-09-02T16:53:56;3.80;;;1.48;;
23884;SDS011;12123;53.088;7.392;2022-09-02T16:56:24;3.38;;;1.38;;
23884;SDS011;12123;53.088;7.392;2022-09-02T16:58:52;6.07;;;1.80;;
23884;SDS011;12123;53.088;7.392;2022-09-02T17:01:20;5.75;;;1.70;;
23884;SDS011;12123;53.088;7.392;2022-09-02T17:03:48;2.90;;;1.15;;
23884;SDS011;12123;53.088;7.392;2022-09-02T17:06:16;3.83;;;1.63;;